sensor_id;sensor_type;location;lat;lon;timestamp;temperature;humidity
55091;DHT22;40985;53.180;5.800;2024-03-07T00:00:12;3.20;99.90
55091;DHT22;40985;53.180;5.800;2024-03-07T00:02:43;3.40;99.90
55091;DHT22;40985;53.180;5.800;2024-03-07T00:05:10;3.40;99.90
55091;DHT22;40985;53.180;5.800;2024-03-07T00:07:37;3.30;99.90
55091;DHT22;40985;53.180;5.800;2024-03-07T00:10:03;3.20;99.90
55091;DHT22;40985;53.180;5.800;2024-03-07T00:12:30;3.30;99.90
55091;DHT22;40985;53.180;5.800;2024-03-07T00:14:57;3.30;99.90
55091;DHT22;40985;53.180;5.800;2024-03-07T00:17:23;3.30;99.90
55091;DHT22;40985;53.180;5.800;2024-03-07T00:19:48;3.30;99.90
55091;DHT22;40985;53.180;5.800;2024-03-07T00:22:15;3.20;99.90
55091;DHT22;40985;53.180;5.800;2024-03-07T00:24:40;3.10;99.90
55091;DHT22;40985;53.180;5.800;2024-03-07T00:27:08;3.20;99.90
55091;DHT22;40985;53.180;5.800;2024-03-07T00:29:34;3.30;99.90
55091;DHT22;40985;53.180;5.800;2024-03-07T00:32:03;3.30;99.90
55091;DHT22;40985;53.180;5.800;2024-03-07T00:34:29;3.10;99.90
55091;DHT22;40985;53.180;5.800;2024-03-07T00:36:55;3.20;99.90
55091;DHT22;40985;53.180;5.800;2024-03-07T00:39:23;3.20;99.90
55091;DHT22;40985;53.180;5.800;2024-03-07T00:41:49;3.20;99.90
55091;DHT22;40985;53.180;5.800;2024-03-07T00:44:15;3.10;99.90
55091;DHT22;40985;53.180;5.800;2024-03-07T00:46:41;3.10;99.90
55091;DHT22;40985;53.180;5.800;2024-03-07T00:49:07;3.10;99.90
55091;DHT22;40985;53.180;5.800;2024-03-07T00:51:33;2.90;99.90
55091;DHT22;40985;53.180;5.800;2024-03-07T00:53:58;3.00;99.90
55091;DHT22;40985;53.180;5.800;2024-03-07T00:56:24;3.00;99.90
55091;DHT22;40985;53.180;5.800;2024-03-07T00:58:51;3.00;99.90
55091;DHT22;40985;53.180;5.800;2024-03-07T01:01:17;3.00;99.90
55091;DHT22;40985;53.180;5.800;2024-03-07T01:03:44;2.90;99.90
55091;DHT22;40985;53.180;5.800;2024-03-07T01:06:10;3.00;99.90
55091;DHT22;40985;53.180;5.800;2024-03-07T01:08:36;2.80;99.90
55091;DHT22;40985;53.180;5.800;2024-03-07T01:11:03;2.90;99.90
55091;DHT22;40985;53.180;5.800;2024-03-07T01:13:44;2.90;99.90
55091;DHT22;40985;53.180;5.800;2024-03-07T01:16:09;2.80;99.90
55091;DHT22;40985;53.180;5.800;2024-03-07T01:18:37;2.70;99.90
55091;DHT22;40985;53.180;5.800;2024-03-07T01:21:04;2.80;99.90
55091;DHT22;40985;53.180;5.800;2024-03-07T01:23:31;2.80;99.90
55091;DHT22;40985;53.180;5.800;2024-03-07T01:25:58;2.70;99.90
55091;DHT22;40985;53.180;5.800;2024-03-07T01:28:24;2.60;99.90
55091;DHT22;40985;53.180;5.800;2024-03-07T01:30:51;2.70;99.90
55091;DHT22;40985;53.180;5.800;2024-03-07T01:33:17;2.60;99.90
55091;DHT22;40985;53.180;5.800;2024-03-07T01:35:42;2.70;99.90
55091;DHT22;40985;53.180;5.800;2024-03-07T01:38:08;2.60;99.90
55091;DHT22;40985;53.180;5.800;2024-03-07T01:40:40;2.70;99.90
55091;DHT22;40985;53.180;5.800;2024-03-07T01:43:07;2.70;99.90
55091;DHT22;40985;53.180;5.800;2024-03-07T01:45:32;2.60;99.90
55091;DHT22;40985;53.180;5.800;2024-03-07T01:47:59;2.60;99.90
55091;DHT22;40985;53.180;5.800;2024-03-07T01:50:24;2.50;99.90
55091;DHT22;40985;53.180;5.800;2024-03-07T01:52:50;2.50;99.90
55091;DHT22;40985;53.180;5.800;2024-03-07T01:55:18;2.50;99.90
55091;DHT22;40985;53.180;5.800;2024-03-07T01:57:44;2.60;99.90
55091;DHT22;40985;53.180;5.800;2024-03-07T02:00:11;2.50;99.90
55091;DHT22;40985;53.180;5.800;2024-03-07T02:02:37;2.50;99.90
55091;DHT22;40985;53.180;5.800;2024-03-07T02:05:03;2.50;99.90
55091;DHT22;40985;53.180;5.800;2024-03-07T02:07:30;2.40;99.90
55091;DHT22;40985;53.180;5.800;2024-03-07T02:10:05;2.40;99.90
55091;DHT22;40985;53.180;5.800;2024-03-07T02:12:31;2.30;99.90
55091;DHT22;40985;53.180;5.800;2024-03-07T02:14:57;2.40;99.90
55091;DHT22;40985;53.180;5.800;2024-03-07T02:17:27;2.30;99.90
55091;DHT22;40985;53.180;5.800;2024-03-07T02:19:53;2.30;99.90
55091;DHT22;40985;53.180;5.800;2024-03-07T02:22:19;2.30;99.90
55091;DHT22;40985;53.180;5.800;2024-03-07T02:24:45;2.20;99.90
55091;DHT22;40985;53.180;5.800;2024-03-07T02:27:12;2.20;99.90
55091;DHT22;40985;53.180;5.800;2024-03-07T02:29:42;2.20;99.90
55091;DHT22;40985;53.180;5.800;2024-03-07T02:32:08;2.20;99.90
55091;DHT22;40985;53.180;5.800;2024-03-07T02:34:35;2.20;99.90
55091;DHT22;40985;53.180;5.800;2024-03-07T02:37:01;2.20;99.90
55091;DHT22;40985;53.180;5.800;2024-03-07T02:39:27;2.10;99.90
55091;DHT22;40985;53.180;5.800;2024-03-07T02:41:53;2.10;99.90
55091;DHT22;40985;53.180;5.800;2024-03-07T02:44:19;2.00;99.90
55091;DHT22;40985;53.180;5.800;2024-03-07T02:46:45;2.10;99.90
55091;DHT22;40985;53.180;5.800;2024-03-07T02:49:13;2.00;99.90
55091;DHT22;40985;53.180;5.800;2024-03-07T02:51:40;1.90;99.90
55091;DHT22;40985;53.180;5.800;2024-03-07T02:54:07;1.90;99.90
55091;DHT22;40985;53.180;5.800;2024-03-07T02:56:33;2.00;99.90
55091;DHT22;40985;53.180;5.800;2024-03-07T02:58:59;1.80;99.90
55091;DHT22;40985;53.180;5.800;2024-03-07T03:01:25;1.90;99.90
55091;DHT22;40985;53.180;5.800;2024-03-07T03:03:51;1.80;99.90
55091;DHT22;40985;53.180;5.800;2024-03-07T03:06:17;1.80;99.90
55091;DHT22;40985;53.180;5.800;2024-03-07T03:08:46;1.80;99.90
55091;DHT22;40985;53.180;5.800;2024-03-07T03:11:12;1.80;99.90
55091;DHT22;40985;53.180;5.800;2024-03-07T03:13:42;1.80;99.90
55091;DHT22;40985;53.180;5.800;2024-03-07T03:16:09;1.90;99.90
55091;DHT22;40985;53.180;5.800;2024-03-07T03:18:35;1.80;99.90
55091;DHT22;40985;53.180;5.800;2024-03-07T03:21:01;1.70;99.90
55091;DHT22;40985;53.180;5.800;2024-03-07T03:23:28;1.80;99.90
55091;DHT22;40985;53.180;5.800;2024-03-07T03:25:54;1.80;99.90
55091;DHT22;40985;53.180;5.800;2024-03-07T03:28:21;1.70;99.90
55091;DHT22;40985;53.180;5.800;2024-03-07T03:30:47;1.60;99.90
55091;DHT22;40985;53.180;5.800;2024-03-07T03:33:14;1.70;99.90
55091;DHT22;40985;53.180;5.800;2024-03-07T03:35:40;1.60;99.90
55091;DHT22;40985;53.180;5.800;2024-03-07T03:38:07;1.70;99.90
55091;DHT22;40985;53.180;5.800;2024-03-07T03:40:33;1.60;99.90
55091;DHT22;40985;53.180;5.800;2024-03-07T03:42:59;1.60;99.90
55091;DHT22;40985;53.180;5.800;2024-03-07T03:45:26;1.60;99.90
55091;DHT22;40985;53.180;5.800;2024-03-07T03:47:52;1.60;99.90
55091;DHT22;40985;53.180;5.800;2024-03-07T03:50:18;1.50;99.90
55091;DHT22;40985;53.180;5.800;2024-03-07T03:52:44;1.60;99.90
55091;DHT22;40985;53.180;5.800;2024-03-07T03:55:11;1.50;99.90
55091;DHT22;40985;53.180;5.800;2024-03-07T03:57:39;1.50;99.90
55091;DHT22;40985;53.180;5.800;2024-03-07T04:00:06;1.60;99.90
55091;DHT22;40985;53.180;5.800;2024-03-07T04:02:41;1.50;99.90
55091;DHT22;40985;53.180;5.800;2024-03-07T04:05:11;1.50;99.90
55091;DHT22;40985;53.180;5.800;2024-03-07T04:07:39;1.40;99.90
55091;DHT22;40985;53.180;5.800;2024-03-07T04:10:05;1.60;99.90
55091;DHT22;40985;53.180;5.800;2024-03-07T04:12:36;1.40;99.90
55091;DHT22;40985;53.180;5.800;2024-03-07T04:15:13;1.40;99.90
55091;DHT22;40985;53.180;5.800;2024-03-07T04:17:42;1.40;99.90
55091;DHT22;40985;53.180;5.800;2024-03-07T04:20:08;1.50;99.90
55091;DHT22;40985;53.180;5.800;2024-03-07T04:22:38;1.40;99.90
55091;DHT22;40985;53.180;5.800;2024-03-07T04:25:07;1.40;99.90
55091;DHT22;40985;53.180;5.800;2024-03-07T04:27:34;1.40;99.90
55091;DHT22;40985;53.180;5.800;2024-03-07T04:30:08;1.40;99.90
55091;DHT22;40985;53.180;5.800;2024-03-07T04:32:37;1.50;99.90
55091;DHT22;40985;53.180;5.800;2024-03-07T04:35:04;1.40;99.90
55091;DHT22;40985;53.180;5.800;2024-03-07T04:37:33;1.50;99.90
55091;DHT22;40985;53.180;5.800;2024-03-07T04:40:04;1.50;99.90
55091;DHT22;40985;53.180;5.800;2024-03-07T04:42:30;1.50;99.90
55091;DHT22;40985;53.180;5.800;2024-03-07T04:44:56;1.40;99.90
55091;DHT22;40985;53.180;5.800;2024-03-07T04:47:21;1.40;99.90
55091;DHT22;40985;53.180;5.800;2024-03-07T04:49:47;1.40;99.90
55091;DHT22;40985;53.180;5.800;2024-03-07T04:52:13;1.40;99.90
55091;DHT22;40985;53.180;5.800;2024-03-07T04:54:38;1.40;99.90
55091;DHT22;40985;53.180;5.800;2024-03-07T04:57:04;1.40;99.90
55091;DHT22;40985;53.180;5.800;2024-03-07T04:59:31;1.50;99.90
55091;DHT22;40985;53.180;5.800;2024-03-07T05:01:56;1.30;99.90
55091;DHT22;40985;53.180;5.800;2024-03-07T05:04:23;1.30;99.90
55091;DHT22;40985;53.180;5.800;2024-03-07T05:06:49;1.40;99.90
55091;DHT22;40985;53.180;5.800;2024-03-07T05:09:14;1.30;99.90
55091;DHT22;40985;53.180;5.800;2024-03-07T05:11:51;1.40;99.90
55091;DHT22;40985;53.180;5.800;2024-03-07T05:14:17;1.30;99.90
55091;DHT22;40985;53.180;5.800;2024-03-07T05:16:43;1.20;99.90
55091;DHT22;40985;53.180;5.800;2024-03-07T05:19:09;1.40;99.90
55091;DHT22;40985;53.180;5.800;2024-03-07T05:21:34;1.40;99.90
55091;DHT22;40985;53.180;5.800;2024-03-07T05:24:06;1.20;99.90
55091;DHT22;40985;53.180;5.800;2024-03-07T05:26:34;1.30;99.90
55091;DHT22;40985;53.180;5.800;2024-03-07T05:29:06;1.20;99.90
55091;DHT22;40985;53.180;5.800;2024-03-07T05:31:39;1.30;99.90
55091;DHT22;40985;53.180;5.800;2024-03-07T05:34:12;1.30;99.90
55091;DHT22;40985;53.180;5.800;2024-03-07T05:36:39;1.30;99.90
55091;DHT22;40985;53.180;5.800;2024-03-07T05:39:16;1.10;99.90
55091;DHT22;40985;53.180;5.800;2024-03-07T05:41:43;1.20;99.90
55091;DHT22;40985;53.180;5.800;2024-03-07T05:44:14;1.20;99.90
55091;DHT22;40985;53.180;5.800;2024-03-07T05:46:42;1.20;99.90
55091;DHT22;40985;53.180;5.800;2024-03-07T05:49:15;1.20;99.90
55091;DHT22;40985;53.180;5.800;2024-03-07T05:51:42;1.10;99.90
55091;DHT22;40985;53.180;5.800;2024-03-07T05:54:11;1.10;99.90
55091;DHT22;40985;53.180;5.800;2024-03-07T05:56:41;1.10;99.90
55091;DHT22;40985;53.180;5.800;2024-03-07T05:59:07;1.20;99.90
55091;DHT22;40985;53.180;5.800;2024-03-07T06:01:35;1.20;99.90
55091;DHT22;40985;53.180;5.800;2024-03-07T06:04:02;1.00;99.90
55091;DHT22;40985;53.180;5.800;2024-03-07T06:06:28;1.10;99.90
55091;DHT22;40985;53.180;5.800;2024-03-07T06:08:58;1.10;99.90
55091;DHT22;40985;53.180;5.800;2024-03-07T06:11:23;1.10;99.90
55091;DHT22;40985;53.180;5.800;2024-03-07T06:13:49;1.10;99.90
55091;DHT22;40985;53.180;5.800;2024-03-07T06:16:15;0.90;99.90
55091;DHT22;40985;53.180;5.800;2024-03-07T06:18:41;1.00;99.90
55091;DHT22;40985;53.180;5.800;2024-03-07T06:21:07;1.00;99.90
55091;DHT22;40985;53.180;5.800;2024-03-07T06:23:34;1.00;99.90
55091;DHT22;40985;53.180;5.800;2024-03-07T06:26:00;1.10;99.90
55091;DHT22;40985;53.180;5.800;2024-03-07T06:28:27;1.00;99.90
55091;DHT22;40985;53.180;5.800;2024-03-07T06:30:55;1.00;99.90
55091;DHT22;40985;53.180;5.800;2024-03-07T06:33:21;1.00;99.90
55091;DHT22;40985;53.180;5.800;2024-03-07T06:35:47;1.10;99.90
55091;DHT22;40985;53.180;5.800;2024-03-07T06:38:13;1.10;99.90
55091;DHT22;40985;53.180;5.800;2024-03-07T06:40:40;1.10;99.90
55091;DHT22;40985;53.180;5.800;2024-03-07T06:43:09;1.20;99.90
55091;DHT22;40985;53.180;5.800;2024-03-07T06:45:37;1.20;99.90
55091;DHT22;40985;53.180;5.800;2024-03-07T06:48:06;1.30;99.90
55091;DHT22;40985;53.180;5.800;2024-03-07T06:50:38;1.20;99.90
55091;DHT22;40985;53.180;5.800;2024-03-07T06:53:04;1.30;99.90
55091;DHT22;40985;53.180;5.800;2024-03-07T06:55:32;1.30;99.90
55091;DHT22;40985;53.180;5.800;2024-03-07T06:58:02;1.30;99.90
55091;DHT22;40985;53.180;5.800;2024-03-07T07:00:31;1.50;99.90
55091;DHT22;40985;53.180;5.800;2024-03-07T07:03:03;1.40;99.90
55091;DHT22;40985;53.180;5.800;2024-03-07T07:05:29;1.50;99.90
55091;DHT22;40985;53.180;5.800;2024-03-07T07:07:55;1.80;99.90
55091;DHT22;40985;53.180;5.800;2024-03-07T07:10:21;1.70;99.90
55091;DHT22;40985;53.180;5.800;2024-03-07T07:12:50;1.70;99.90
55091;DHT22;40985;53.180;5.800;2024-03-07T07:15:18;1.90;99.90
55091;DHT22;40985;53.180;5.800;2024-03-07T07:17:47;1.80;99.90
55091;DHT22;40985;53.180;5.800;2024-03-07T07:20:16;2.00;99.90
55091;DHT22;40985;53.180;5.800;2024-03-07T07:22:47;2.00;99.90
55091;DHT22;40985;53.180;5.800;2024-03-07T07:25:16;2.10;99.90
55091;DHT22;40985;53.180;5.800;2024-03-07T07:27:46;2.20;99.90
55091;DHT22;40985;53.180;5.800;2024-03-07T07:30:16;2.20;99.90
55091;DHT22;40985;53.180;5.800;2024-03-07T07:32:43;2.40;99.90
55091;DHT22;40985;53.180;5.800;2024-03-07T07:35:10;2.40;99.90
55091;DHT22;40985;53.180;5.800;2024-03-07T07:37:51;2.40;99.90
55091;DHT22;40985;53.180;5.800;2024-03-07T07:40:20;2.60;99.90
55091;DHT22;40985;53.180;5.800;2024-03-07T07:42:52;2.60;99.90
55091;DHT22;40985;53.180;5.800;2024-03-07T07:45:19;2.70;99.90
55091;DHT22;40985;53.180;5.800;2024-03-07T07:47:47;2.80;99.90
55091;DHT22;40985;53.180;5.800;2024-03-07T07:50:20;2.80;99.90
55091;DHT22;40985;53.180;5.800;2024-03-07T07:52:52;2.80;99.90
55091;DHT22;40985;53.180;5.800;2024-03-07T07:55:20;2.90;99.90
55091;DHT22;40985;53.180;5.800;2024-03-07T07:57:51;2.90;99.90
55091;DHT22;40985;53.180;5.800;2024-03-07T08:00:25;3.10;99.90
55091;DHT22;40985;53.180;5.800;2024-03-07T08:02:55;3.10;99.90
55091;DHT22;40985;53.180;5.800;2024-03-07T08:05:22;3.30;99.90
55091;DHT22;40985;53.180;5.800;2024-03-07T08:07:51;3.20;99.90
55091;DHT22;40985;53.180;5.800;2024-03-07T08:10:18;3.40;99.90
55091;DHT22;40985;53.180;5.800;2024-03-07T08:12:45;3.50;99.90
55091;DHT22;40985;53.180;5.800;2024-03-07T08:15:12;3.50;99.90
55091;DHT22;40985;53.180;5.800;2024-03-07T08:17:40;3.50;99.90
55091;DHT22;40985;53.180;5.800;2024-03-07T08:20:06;3.60;99.90
55091;DHT22;40985;53.180;5.800;2024-03-07T08:22:38;3.60;99.90
55091;DHT22;40985;53.180;5.800;2024-03-07T08:25:09;3.70;99.90
55091;DHT22;40985;53.180;5.800;2024-03-07T08:27:39;3.70;99.90
55091;DHT22;40985;53.180;5.800;2024-03-07T08:30:08;3.70;99.90
55091;DHT22;40985;53.180;5.800;2024-03-07T08:32:39;3.80;99.90
55091;DHT22;40985;53.180;5.800;2024-03-07T08:35:06;3.70;99.90
55091;DHT22;40985;53.180;5.800;2024-03-07T08:37:38;3.70;99.90
55091;DHT22;40985;53.180;5.800;2024-03-07T08:40:05;3.70;99.90
55091;DHT22;40985;53.180;5.800;2024-03-07T08:42:35;3.60;99.90
55091;DHT22;40985;53.180;5.800;2024-03-07T08:45:02;3.70;99.90
55091;DHT22;40985;53.180;5.800;2024-03-07T08:47:34;3.60;99.90
55091;DHT22;40985;53.180;5.800;2024-03-07T08:50:00;3.60;99.90
55091;DHT22;40985;53.180;5.800;2024-03-07T08:52:26;3.50;99.90
55091;DHT22;40985;53.180;5.800;2024-03-07T08:54:53;3.50;99.90
55091;DHT22;40985;53.180;5.800;2024-03-07T08:57:19;3.40;99.90
55091;DHT22;40985;53.180;5.800;2024-03-07T08:59:47;3.40;99.90
55091;DHT22;40985;53.180;5.800;2024-03-07T09:02:14;3.30;99.90
55091;DHT22;40985;53.180;5.800;2024-03-07T09:04:40;3.30;99.90
55091;DHT22;40985;53.180;5.800;2024-03-07T09:07:06;3.20;99.90
55091;DHT22;40985;53.180;5.800;2024-03-07T09:09:32;3.10;99.90
55091;DHT22;40985;53.180;5.800;2024-03-07T09:11:59;3.10;99.90
55091;DHT22;40985;53.180;5.800;2024-03-07T09:14:29;3.20;99.90
55091;DHT22;40985;53.180;5.800;2024-03-07T09:16:55;3.20;99.90
55091;DHT22;40985;53.180;5.800;2024-03-07T09:19:22;3.10;99.90
55091;DHT22;40985;53.180;5.800;2024-03-07T09:21:53;3.20;99.90
55091;DHT22;40985;53.180;5.800;2024-03-07T09:24:19;3.20;99.90
55091;DHT22;40985;53.180;5.800;2024-03-07T09:26:52;3.10;99.90
55091;DHT22;40985;53.180;5.800;2024-03-07T09:29:18;3.10;99.90
55091;DHT22;40985;53.180;5.800;2024-03-07T09:31:49;3.20;99.90
55091;DHT22;40985;53.180;5.800;2024-03-07T09:34:18;3.30;99.90
55091;DHT22;40985;53.180;5.800;2024-03-07T09:36:44;3.50;99.90
55091;DHT22;40985;53.180;5.800;2024-03-07T09:39:10;3.50;99.90
55091;DHT22;40985;53.180;5.800;2024-03-07T09:41:38;3.70;99.90
55091;DHT22;40985;53.180;5.800;2024-03-07T09:44:05;3.80;99.90
55091;DHT22;40985;53.180;5.800;2024-03-07T09:46:34;3.80;99.90
55091;DHT22;40985;53.180;5.800;2024-03-07T09:49:01;3.80;99.90
55091;DHT22;40985;53.180;5.800;2024-03-07T09:51:27;3.70;99.90
55091;DHT22;40985;53.180;5.800;2024-03-07T09:53:56;3.70;99.90
55091;DHT22;40985;53.180;5.800;2024-03-07T09:56:25;3.80;99.90
55091;DHT22;40985;53.180;5.800;2024-03-07T09:58:53;3.80;99.90
55091;DHT22;40985;53.180;5.800;2024-03-07T10:01:21;3.90;99.90
55091;DHT22;40985;53.180;5.800;2024-03-07T10:03:48;4.10;99.90
55091;DHT22;40985;53.180;5.800;2024-03-07T10:06:15;4.00;99.90
55091;DHT22;40985;53.180;5.800;2024-03-07T10:08:42;4.00;99.90
55091;DHT22;40985;53.180;5.800;2024-03-07T10:11:09;3.80;99.90
55091;DHT22;40985;53.180;5.800;2024-03-07T10:13:35;3.80;99.90
55091;DHT22;40985;53.180;5.800;2024-03-07T10:16:04;3.70;99.90
55091;DHT22;40985;53.180;5.800;2024-03-07T10:18:31;3.80;99.90
55091;DHT22;40985;53.180;5.800;2024-03-07T10:20:57;3.70;99.90
55091;DHT22;40985;53.180;5.800;2024-03-07T10:23:23;3.80;99.90
55091;DHT22;40985;53.180;5.800;2024-03-07T10:25:53;3.70;99.90
55091;DHT22;40985;53.180;5.800;2024-03-07T10:28:20;3.80;99.90
55091;DHT22;40985;53.180;5.800;2024-03-07T10:30:46;3.90;99.90
55091;DHT22;40985;53.180;5.800;2024-03-07T10:33:16;3.80;99.90
55091;DHT22;40985;53.180;5.800;2024-03-07T10:35:42;3.80;99.90
55091;DHT22;40985;53.180;5.800;2024-03-07T10:38:12;3.80;99.90
55091;DHT22;40985;53.180;5.800;2024-03-07T10:40:38;3.70;99.90
55091;DHT22;40985;53.180;5.800;2024-03-07T10:43:10;3.80;99.90
55091;DHT22;40985;53.180;5.800;2024-03-07T10:45:47;3.90;99.90
55091;DHT22;40985;53.180;5.800;2024-03-07T10:48:16;3.90;99.90
55091;DHT22;40985;53.180;5.800;2024-03-07T10:53:32;3.70;99.90
55091;DHT22;40985;53.180;5.800;2024-03-07T10:59:17;3.60;99.90
55091;DHT22;40985;53.180;5.800;2024-03-07T11:04:49;3.80;99.90
55091;DHT22;40985;53.180;5.800;2024-03-07T11:07:24;3.90;99.90
55091;DHT22;40985;53.180;5.800;2024-03-07T11:09:52;3.90;99.90
55091;DHT22;40985;53.180;5.800;2024-03-07T11:12:24;3.90;99.90
55091;DHT22;40985;53.180;5.800;2024-03-07T11:14:54;4.00;99.90
55091;DHT22;40985;53.180;5.800;2024-03-07T11:17:22;4.00;99.90
55091;DHT22;40985;53.180;5.800;2024-03-07T11:19:48;4.00;99.90
55091;DHT22;40985;53.180;5.800;2024-03-07T11:22:30;4.00;99.90
55091;DHT22;40985;53.180;5.800;2024-03-07T11:25:05;4.10;99.90
55091;DHT22;40985;53.180;5.800;2024-03-07T11:27:37;4.40;99.90
55091;DHT22;40985;53.180;5.800;2024-03-07T11:30:09;4.40;99.90
55091;DHT22;40985;53.180;5.800;2024-03-07T11:32:37;4.40;99.90
55091;DHT22;40985;53.180;5.800;2024-03-07T11:35:13;4.60;99.90
55091;DHT22;40985;53.180;5.800;2024-03-07T11:37:48;4.70;99.90
55091;DHT22;40985;53.180;5.800;2024-03-07T11:42:51;4.80;99.90
55091;DHT22;40985;53.180;5.800;2024-03-07T11:45:18;4.80;99.90
55091;DHT22;40985;53.180;5.800;2024-03-07T11:47:54;4.70;99.90
55091;DHT22;40985;53.180;5.800;2024-03-07T11:50:28;4.80;99.90
55091;DHT22;40985;53.180;5.800;2024-03-07T11:52:55;4.70;99.90
55091;DHT22;40985;53.180;5.800;2024-03-07T11:55:24;4.40;99.90
55091;DHT22;40985;53.180;5.800;2024-03-07T11:57:50;4.60;99.90
55091;DHT22;40985;53.180;5.800;2024-03-07T12:00:18;4.60;99.90
55091;DHT22;40985;53.180;5.800;2024-03-07T12:02:44;4.80;99.90
55091;DHT22;40985;53.180;5.800;2024-03-07T12:05:10;4.80;99.90
55091;DHT22;40985;53.180;5.800;2024-03-07T12:07:36;4.50;99.90
55091;DHT22;40985;53.180;5.800;2024-03-07T12:10:04;4.80;99.90
55091;DHT22;40985;53.180;5.800;2024-03-07T12:12:30;4.80;99.90
55091;DHT22;40985;53.180;5.800;2024-03-07T12:14:56;4.60;99.90
55091;DHT22;40985;53.180;5.800;2024-03-07T12:17:23;4.60;99.90
55091;DHT22;40985;53.180;5.800;2024-03-07T12:19:49;4.50;99.90
55091;DHT22;40985;53.180;5.800;2024-03-07T12:22:21;4.40;99.90
55091;DHT22;40985;53.180;5.800;2024-03-07T12:25:08;4.50;99.90
55091;DHT22;40985;53.180;5.800;2024-03-07T12:27:36;4.70;99.90
55091;DHT22;40985;53.180;5.800;2024-03-07T12:30:14;5.00;99.90
55091;DHT22;40985;53.180;5.800;2024-03-07T12:32:51;5.00;99.90
55091;DHT22;40985;53.180;5.800;2024-03-07T12:35:18;4.90;99.90
55091;DHT22;40985;53.180;5.800;2024-03-07T12:37:44;5.00;99.90
55091;DHT22;40985;53.180;5.800;2024-03-07T12:40:14;5.20;99.90
55091;DHT22;40985;53.180;5.800;2024-03-07T12:42:52;5.20;99.90
55091;DHT22;40985;53.180;5.800;2024-03-07T12:45:20;5.20;99.90
55091;DHT22;40985;53.180;5.800;2024-03-07T12:47:47;5.20;99.90
55091;DHT22;40985;53.180;5.800;2024-03-07T12:50:17;5.20;99.90
55091;DHT22;40985;53.180;5.800;2024-03-07T12:52:49;5.10;99.90
55091;DHT22;40985;53.180;5.800;2024-03-07T12:55:18;5.00;99.90
55091;DHT22;40985;53.180;5.800;2024-03-07T12:57:44;4.90;99.90
55091;DHT22;40985;53.180;5.800;2024-03-07T13:00:11;5.00;99.90
55091;DHT22;40985;53.180;5.800;2024-03-07T13:02:47;5.30;99.90
55091;DHT22;40985;53.180;5.800;2024-03-07T13:05:13;5.40;99.90
55091;DHT22;40985;53.180;5.800;2024-03-07T13:07:48;5.70;99.90
55091;DHT22;40985;53.180;5.800;2024-03-07T13:10:17;5.80;99.90
55091;DHT22;40985;53.180;5.800;2024-03-07T13:12:49;5.90;99.90
55091;DHT22;40985;53.180;5.800;2024-03-07T13:15:15;5.80;99.90
55091;DHT22;40985;53.180;5.800;2024-03-07T13:17:41;5.70;99.90
55091;DHT22;40985;53.180;5.800;2024-03-07T13:20:11;5.90;99.90
55091;DHT22;40985;53.180;5.800;2024-03-07T13:22:46;5.90;99.90
55091;DHT22;40985;53.180;5.800;2024-03-07T13:25:25;5.80;99.90
55091;DHT22;40985;53.180;5.800;2024-03-07T13:28:11;5.90;99.90
55091;DHT22;40985;53.180;5.800;2024-03-07T13:30:43;5.80;99.90
55091;DHT22;40985;53.180;5.800;2024-03-07T13:33:09;5.80;99.90
55091;DHT22;40985;53.180;5.800;2024-03-07T13:35:38;5.70;99.90
55091;DHT22;40985;53.180;5.800;2024-03-07T13:38:04;5.70;99.90
55091;DHT22;40985;53.180;5.800;2024-03-07T13:40:30;5.70;99.90
55091;DHT22;40985;53.180;5.800;2024-03-07T13:43:00;5.80;99.90
55091;DHT22;40985;53.180;5.800;2024-03-07T13:45:27;5.80;99.90
55091;DHT22;40985;53.180;5.800;2024-03-07T13:47:54;5.80;99.90
55091;DHT22;40985;53.180;5.800;2024-03-07T13:50:22;5.70;99.90
55091;DHT22;40985;53.180;5.800;2024-03-07T13:52:52;5.70;99.90
55091;DHT22;40985;53.180;5.800;2024-03-07T14:07:44;5.70;99.90
55091;DHT22;40985;53.180;5.800;2024-03-07T14:27:36;5.70;99.90
55091;DHT22;40985;53.180;5.800;2024-03-07T14:32:56;5.80;99.90
55091;DHT22;40985;53.180;5.800;2024-03-07T14:38:28;5.80;99.90
55091;DHT22;40985;53.180;5.800;2024-03-07T14:40:54;5.80;99.90
55091;DHT22;40985;53.180;5.800;2024-03-07T14:43:21;5.80;99.90
55091;DHT22;40985;53.180;5.800;2024-03-07T14:45:47;5.80;99.90
55091;DHT22;40985;53.180;5.800;2024-03-07T14:48:17;5.80;99.90
55091;DHT22;40985;53.180;5.800;2024-03-07T14:50:45;5.70;99.90
55091;DHT22;40985;53.180;5.800;2024-03-07T14:53:12;5.70;99.90
55091;DHT22;40985;53.180;5.800;2024-03-07T14:55:40;5.70;99.90
55091;DHT22;40985;53.180;5.800;2024-03-07T14:58:06;5.70;99.90
55091;DHT22;40985;53.180;5.800;2024-03-07T15:00:39;5.80;99.90
55091;DHT22;40985;53.180;5.800;2024-03-07T15:03:14;5.80;99.90
55091;DHT22;40985;53.180;5.800;2024-03-07T15:05:41;5.80;99.90
55091;DHT22;40985;53.180;5.800;2024-03-07T15:08:07;5.70;99.90
55091;DHT22;40985;53.180;5.800;2024-03-07T15:10:36;5.70;99.90
55091;DHT22;40985;53.180;5.800;2024-03-07T15:13:03;5.70;99.90
55091;DHT22;40985;53.180;5.800;2024-03-07T15:15:29;5.70;99.90
55091;DHT22;40985;53.180;5.800;2024-03-07T15:17:58;5.70;99.90
55091;DHT22;40985;53.180;5.800;2024-03-07T15:20:25;5.70;99.90
55091;DHT22;40985;53.180;5.800;2024-03-07T15:23:01;5.70;99.90
55091;DHT22;40985;53.180;5.800;2024-03-07T15:25:29;5.60;99.90
55091;DHT22;40985;53.180;5.800;2024-03-07T15:27:57;5.60;99.90
55091;DHT22;40985;53.180;5.800;2024-03-07T15:30:24;5.60;99.90
55091;DHT22;40985;53.180;5.800;2024-03-07T15:32:51;5.50;99.90
55091;DHT22;40985;53.180;5.800;2024-03-07T15:35:17;5.50;99.90
55091;DHT22;40985;53.180;5.800;2024-03-07T15:37:49;5.50;99.90
55091;DHT22;40985;53.180;5.800;2024-03-07T15:40:16;5.60;99.90
55091;DHT22;40985;53.180;5.800;2024-03-07T15:42:43;5.50;99.90
55091;DHT22;40985;53.180;5.800;2024-03-07T15:45:15;5.50;99.90
55091;DHT22;40985;53.180;5.800;2024-03-07T15:50:16;5.40;99.90
55091;DHT22;40985;53.180;5.800;2024-03-07T15:52:48;5.40;99.90
55091;DHT22;40985;53.180;5.800;2024-03-07T15:55:16;5.50;99.90
55091;DHT22;40985;53.180;5.800;2024-03-07T16:00:09;5.50;99.90
55091;DHT22;40985;53.180;5.800;2024-03-07T16:05:28;5.50;99.90
55091;DHT22;40985;53.180;5.800;2024-03-07T16:07:56;5.50;99.90
55091;DHT22;40985;53.180;5.800;2024-03-07T16:10:23;5.50;99.90
55091;DHT22;40985;53.180;5.800;2024-03-07T16:12:51;5.50;99.90
55091;DHT22;40985;53.180;5.800;2024-03-07T16:15:17;5.40;99.90
55091;DHT22;40985;53.180;5.800;2024-03-07T16:17:47;5.40;99.90
55091;DHT22;40985;53.180;5.800;2024-03-07T16:20:13;5.50;99.90
55091;DHT22;40985;53.180;5.800;2024-03-07T16:22:41;5.50;99.90
55091;DHT22;40985;53.180;5.800;2024-03-07T16:25:08;5.50;99.90
55091;DHT22;40985;53.180;5.800;2024-03-07T16:27:35;5.50;99.90
55091;DHT22;40985;53.180;5.800;2024-03-07T16:30:03;5.50;99.90
55091;DHT22;40985;53.180;5.800;2024-03-07T16:32:35;5.40;99.90
55091;DHT22;40985;53.180;5.800;2024-03-07T16:35:04;5.40;99.90
55091;DHT22;40985;53.180;5.800;2024-03-07T16:37:39;5.40;99.90
55091;DHT22;40985;53.180;5.800;2024-03-07T16:40:09;5.40;99.90
55091;DHT22;40985;53.180;5.800;2024-03-07T16:42:39;5.40;99.90
55091;DHT22;40985;53.180;5.800;2024-03-07T16:45:11;5.40;99.90